Edmonds, Washington
Current Conditions -  °F | °C
As of 11:16 AM on Friday 28 Nov 2014 (Local Time) from KPAE Reporting Station
Light Rain Light Rain  
Wind Chill: 34°   Ceiling: 500
Heat Index: 40°   Visibility: 2mi
Dew Point: 38°   Wind: 8mph
Humidity: 93%   Direction: 20°NNE
Pressure: 29.52"   Gusts: 16mph
Location:  47.81°N, 122.37°W
Report Text: KPAE 281916Z 02007G14KT 2SM -RA BR BKN005 OVC011 04/03 A2952 RMK AO2 P0004 T00440033
Loading
Personal Weather Stations






























Interactive Weather Map New forecast layout! Learn more

10-Day Weather Forecast

Advertisements
Track Severe Weather on mobile